createdAt,value
2022-10-19T00:00:35.231Z,6.70
2022-10-19T00:01:30.312Z,6.50
2022-10-19T00:02:25.701Z,6.10
2022-10-19T00:03:23.219Z,6.30
2022-10-19T00:04:16.177Z,7.20
2022-10-19T00:05:11.272Z,7.30
2022-10-19T00:06:06.514Z,7.40
2022-10-19T00:07:05.275Z,6.80
2022-10-19T00:08:00.324Z,7.10
2022-10-19T00:08:55.562Z,6.70
2022-10-19T00:09:51.492Z,7.00
2022-10-19T00:10:46.605Z,6.80
2022-10-19T00:11:41.938Z,6.50
2022-10-19T00:12:38.185Z,6.20
2022-10-19T00:13:33.354Z,6.20
2022-10-19T00:14:29.360Z,6.00
2022-10-19T00:15:24.514Z,6.40
2022-10-19T00:16:19.870Z,6.40
2022-10-19T00:17:15.508Z,5.80
2022-10-19T00:18:10.741Z,5.80
2022-10-19T00:19:06.545Z,5.80
2022-10-19T00:20:01.686Z,5.40
2022-10-19T00:20:57.128Z,5.60
2022-10-19T00:21:52.887Z,5.90
2022-10-19T00:22:48.034Z,5.80
2022-10-19T00:23:43.219Z,6.20
2022-10-19T00:24:39.667Z,6.40
2022-10-19T00:25:34.895Z,6.10
2022-10-19T00:26:30.734Z,6.50
2022-10-19T00:27:25.999Z,6.30
2022-10-19T00:28:21.193Z,6.30
2022-10-19T00:29:16.914Z,6.60
2022-10-19T00:30:12.092Z,6.10
2022-10-19T00:31:07.939Z,5.90
2022-10-19T00:32:03.076Z,6.50
2022-10-19T00:32:58.454Z,6.00
2022-10-19T00:33:54.182Z,6.20
2022-10-19T00:34:49.333Z,6.60
2022-10-19T00:35:44.568Z,6.90
2022-10-19T00:36:41.005Z,6.50
2022-10-19T00:37:36.230Z,7.20
2022-10-19T00:38:31.483Z,6.90
2022-10-19T00:39:27.275Z,6.70
2022-10-19T00:40:22.651Z,6.70
2022-10-19T00:41:18.542Z,7.00
2022-10-19T00:42:13.612Z,6.80
2022-10-19T00:43:09.093Z,6.40
2022-10-19T00:44:04.860Z,6.80
2022-10-19T00:45:00.084Z,6.90
2022-10-19T00:45:55.415Z,7.20
2022-10-19T00:46:51.654Z,6.90
2022-10-19T00:47:46.893Z,6.50
2022-10-19T00:48:42.725Z,6.60
2022-10-19T00:49:37.910Z,6.80
2022-10-19T00:50:33.400Z,6.50
2022-10-19T00:51:28.619Z,6.70
2022-10-19T00:52:23.703Z,6.50
2022-10-19T00:53:18.810Z,5.70
2022-10-19T00:54:13.813Z,6.60
2022-10-19T00:55:08.888Z,6.20
2022-10-19T00:56:03.928Z,6.30
2022-10-19T00:56:59.080Z,6.60
2022-10-19T00:57:54.059Z,7.20
2022-10-19T00:58:54.396Z,6.70
2022-10-19T00:59:49.669Z,6.50
2022-10-19T01:00:44.948Z,6.50
2022-10-19T01:01:40.119Z,6.10
2022-10-19T01:02:35.307Z,6.70
2022-10-19T01:03:30.201Z,6.40
2022-10-19T01:04:25.284Z,6.10
2022-10-19T01:05:20.363Z,6.20
2022-10-19T01:06:15.485Z,6.20
2022-10-19T01:07:10.557Z,6.10
2022-10-19T01:08:05.981Z,6.00
2022-10-19T01:09:00.786Z,6.50
2022-10-19T01:09:55.943Z,6.20
2022-10-19T01:10:51.017Z,5.50
2022-10-19T01:11:46.064Z,6.40
2022-10-19T01:12:41.307Z,5.80
2022-10-19T01:13:36.271Z,6.20
2022-10-19T01:14:31.468Z,5.70
2022-10-19T01:15:26.761Z,5.80
2022-10-19T01:16:21.978Z,6.40
2022-10-19T01:17:17.030Z,6.20
2022-10-19T01:18:15.006Z,5.80
2022-10-19T01:19:10.098Z,5.80
2022-10-19T01:20:05.127Z,5.90
2022-10-19T01:21:00.180Z,5.70
2022-10-19T01:21:55.235Z,5.50
2022-10-19T01:22:50.278Z,5.30
2022-10-19T01:23:45.289Z,5.70
2022-10-19T01:24:40.805Z,5.40
2022-10-19T01:25:35.390Z,5.40
2022-10-19T01:26:30.562Z,5.40
2022-10-19T01:27:25.460Z,5.80
2022-10-19T01:28:20.557Z,5.80
2022-10-19T01:29:15.597Z,5.60
2022-10-19T01:30:10.686Z,5.90
2022-10-19T01:31:05.738Z,5.20
2022-10-19T01:32:00.816Z,5.40
2022-10-19T01:32:57.619Z,5.50
2022-10-19T01:33:52.788Z,5.20
2022-10-19T01:34:47.823Z,5.30
2022-10-19T01:35:42.902Z,5.50
2022-10-19T01:36:37.977Z,5.50
2022-10-19T01:37:33.429Z,5.70
2022-10-19T01:38:28.065Z,5.50
2022-10-19T01:39:23.150Z,4.80
2022-10-19T01:40:18.316Z,6.00
2022-10-19T01:41:13.521Z,5.80
2022-10-19T01:42:08.577Z,5.90
2022-10-19T01:43:03.632Z,5.60
2022-10-19T01:43:58.692Z,5.30
2022-10-19T01:44:53.701Z,6.30
2022-10-19T01:45:48.790Z,6.00
2022-10-19T01:46:44.524Z,5.70
2022-10-19T01:47:39.702Z,5.60
2022-10-19T01:48:35.558Z,6.10
2022-10-19T01:49:30.717Z,6.00
2022-10-19T01:50:26.088Z,5.90
2022-10-19T01:51:21.841Z,5.50
2022-10-19T01:52:17.072Z,5.50
2022-10-19T01:53:12.215Z,6.00
2022-10-19T01:54:08.661Z,6.30
2022-10-19T01:55:03.983Z,6.10
2022-10-19T01:55:59.689Z,6.50
2022-10-19T01:56:54.854Z,7.10
2022-10-19T01:57:50.007Z,6.10
2022-10-19T01:58:45.883Z,7.00
2022-10-19T01:59:41.143Z,6.00
2022-10-19T02:00:37.034Z,6.10
2022-10-19T02:01:32.116Z,6.30
2022-10-19T02:02:27.581Z,6.10
2022-10-19T02:03:23.396Z,6.20
2022-10-19T02:04:18.629Z,6.10
2022-10-19T02:05:13.957Z,6.50
2022-10-19T02:06:10.263Z,6.40
2022-10-19T02:07:05.488Z,7.10
2022-10-19T02:08:01.287Z,6.50
2022-10-19T02:08:56.511Z,6.30
2022-10-19T02:09:51.968Z,6.90
2022-10-19T02:10:47.632Z,7.20
2022-10-19T02:11:45.167Z,6.90
2022-10-19T02:12:39.681Z,7.00
2022-10-19T02:13:33.946Z,7.50
2022-10-19T02:14:29.363Z,6.70
2022-10-19T02:15:26.002Z,7.50
2022-10-19T02:16:21.351Z,7.30
2022-10-19T02:17:16.580Z,6.70
2022-10-19T02:18:12.902Z,7.00
2022-10-19T02:19:08.176Z,6.50
2022-10-19T02:20:03.939Z,6.40
2022-10-19T02:20:59.078Z,7.00
2022-10-19T02:21:54.331Z,7.20
2022-10-19T02:22:50.121Z,6.40
2022-10-19T02:23:46.170Z,6.50
2022-10-19T02:24:41.210Z,7.10
2022-10-19T02:25:36.529Z,6.90
2022-10-19T02:26:31.937Z,7.40
2022-10-19T02:27:27.605Z,6.90
2022-10-19T02:28:22.915Z,7.00
2022-10-19T02:29:18.139Z,6.50
2022-10-19T02:30:13.347Z,6.50
2022-10-19T02:31:09.836Z,6.70
2022-10-19T02:32:05.044Z,7.10
2022-10-19T02:33:00.289Z,6.90
2022-10-19T02:33:56.071Z,7.20
2022-10-19T02:34:51.315Z,7.20
2022-10-19T02:35:46.535Z,7.70
2022-10-19T02:36:42.852Z,6.70
2022-10-19T02:37:38.125Z,7.60
2022-10-19T02:38:33.915Z,7.20
2022-10-19T02:39:29.451Z,7.80
2022-10-19T02:40:24.577Z,8.30
2022-10-19T02:41:20.358Z,7.20
2022-10-19T02:42:15.607Z,7.60
2022-10-19T02:43:11.370Z,8.10
2022-10-19T02:44:06.600Z,7.90
2022-10-19T02:45:01.989Z,8.40
2022-10-19T02:45:57.907Z,8.30
2022-10-19T02:46:52.997Z,8.70
2022-10-19T02:47:48.218Z,9.00
2022-10-19T02:48:43.400Z,9.00
2022-10-19T02:49:38.669Z,9.40
2022-10-19T02:50:34.031Z,9.40
2022-10-19T02:51:29.737Z,9.70
2022-10-19T02:52:24.699Z,9.50
2022-10-19T02:53:20.484Z,9.00
2022-10-19T02:54:15.714Z,9.80
2022-10-19T02:55:10.949Z,10.40
2022-10-19T02:56:06.184Z,10.90
2022-10-19T02:57:01.199Z,10.70
2022-10-19T02:57:56.256Z,10.50
2022-10-19T02:58:51.368Z,12.20
2022-10-19T02:59:46.449Z,11.30
2022-10-19T03:00:41.629Z,11.40
2022-10-19T03:01:36.584Z,11.30
2022-10-19T03:02:31.559Z,11.60
2022-10-19T03:03:26.653Z,12.60
2022-10-19T03:04:21.772Z,11.30
2022-10-19T03:05:16.882Z,10.10
2022-10-19T03:06:11.983Z,11.60
2022-10-19T03:07:07.097Z,10.80
2022-10-19T03:08:02.238Z,10.70
2022-10-19T03:08:57.225Z,10.30
2022-10-19T03:09:52.330Z,10.60
2022-10-19T03:10:47.415Z,11.00
2022-10-19T03:11:42.414Z,10.10
2022-10-19T03:12:37.505Z,11.20
2022-10-19T03:13:32.594Z,10.90
2022-10-19T03:14:27.694Z,11.20
2022-10-19T03:15:22.799Z,12.20
2022-10-19T03:16:17.894Z,11.90
2022-10-19T03:17:13.086Z,12.80
2022-10-19T03:18:08.430Z,12.10
2022-10-19T03:19:03.586Z,12.70
2022-10-19T03:19:58.928Z,12.40
2022-10-19T03:20:54.060Z,12.90
2022-10-19T03:21:49.311Z,12.10
2022-10-19T03:22:44.526Z,12.60
2022-10-19T03:23:39.768Z,12.40
2022-10-19T03:24:35.001Z,13.40
2022-10-19T03:25:30.240Z,12.20
2022-10-19T03:26:25.900Z,11.90
2022-10-19T03:27:21.114Z,11.40
2022-10-19T03:28:16.480Z,12.50
2022-10-19T03:29:11.874Z,12.90
2022-10-19T03:30:06.825Z,12.50
2022-10-19T03:31:02.086Z,11.70
2022-10-19T03:31:57.343Z,12.60
2022-10-19T03:32:52.577Z,13.10
2022-10-19T03:33:47.815Z,13.90
2022-10-19T03:34:43.144Z,13.50
2022-10-19T03:35:38.527Z,12.60
2022-10-19T03:36:33.642Z,13.10
2022-10-19T03:37:28.863Z,12.50
2022-10-19T03:38:24.225Z,12.80
2022-10-19T03:39:19.441Z,12.80
2022-10-19T03:40:14.650Z,13.60
2022-10-19T03:41:09.926Z,13.00
2022-10-19T03:42:05.307Z,13.90
2022-10-19T03:43:00.518Z,13.10
2022-10-19T03:43:55.805Z,12.90
2022-10-19T03:44:51.000Z,13.20
2022-10-19T03:45:46.230Z,11.90
2022-10-19T03:46:41.460Z,11.80
2022-10-19T03:47:36.903Z,12.40
2022-10-19T03:48:31.918Z,12.50
2022-10-19T03:49:27.158Z,13.80
2022-10-19T03:50:22.500Z,12.80
2022-10-19T03:51:17.661Z,13.60
2022-10-19T03:52:12.867Z,14.20
2022-10-19T03:53:08.112Z,14.40
2022-10-19T03:54:03.200Z,14.20
2022-10-19T03:54:58.274Z,15.20
2022-10-19T03:55:53.387Z,14.10
2022-10-19T03:56:48.457Z,15.50
2022-10-19T03:57:43.696Z,15.00
2022-10-19T03:58:38.849Z,16.00
2022-10-19T03:59:34.088Z,15.20
2022-10-19T04:00:29.902Z,16.70
2022-10-19T04:01:25.077Z,16.80
2022-10-19T04:02:20.065Z,14.70
2022-10-19T04:03:15.176Z,14.80
2022-10-19T04:04:10.308Z,15.60
2022-10-19T04:05:05.371Z,14.80
2022-10-19T04:06:00.545Z,15.30
2022-10-19T04:06:55.456Z,15.80
2022-10-19T04:07:50.633Z,14.60
2022-10-19T04:08:45.683Z,14.70
2022-10-19T04:09:40.786Z,15.10
2022-10-19T04:10:36.007Z,15.00
2022-10-19T04:11:31.353Z,15.30
2022-10-19T04:12:26.592Z,15.20
2022-10-19T04:13:21.853Z,16.30
2022-10-19T04:14:26.727Z,16.10
2022-10-19T04:15:13.355Z,15.80
2022-10-19T04:16:08.187Z,16.30
2022-10-19T04:17:03.014Z,16.60
2022-10-19T04:17:58.179Z,15.30
2022-10-19T04:18:53.426Z,16.40
2022-10-19T04:19:48.686Z,17.10
2022-10-19T04:20:43.931Z,15.60
2022-10-19T04:21:39.145Z,16.40
2022-10-19T04:22:34.448Z,16.00
2022-10-19T04:23:29.661Z,16.40
2022-10-19T04:24:24.908Z,16.00
2022-10-19T04:25:20.143Z,16.40
2022-10-19T04:26:15.336Z,17.70
2022-10-19T04:27:10.721Z,17.00
2022-10-19T04:28:05.826Z,17.60
2022-10-19T04:29:01.128Z,16.40
2022-10-19T04:29:56.369Z,19.40
2022-10-19T04:30:51.788Z,17.90
2022-10-19T04:31:47.015Z,16.40
2022-10-19T04:32:42.314Z,17.30
2022-10-19T04:33:37.582Z,17.70
2022-10-19T04:34:35.223Z,17.50
2022-10-19T04:35:28.052Z,18.20
2022-10-19T04:36:23.292Z,17.40
2022-10-19T04:37:18.662Z,16.40
2022-10-19T04:38:13.875Z,18.10
2022-10-19T04:39:09.111Z,16.80
2022-10-19T04:40:04.320Z,18.00
2022-10-19T04:40:59.676Z,17.20
2022-10-19T04:41:54.821Z,17.20
2022-10-19T04:42:50.060Z,16.70
2022-10-19T04:43:45.370Z,17.40
2022-10-19T04:44:40.572Z,17.60
2022-10-19T04:45:35.915Z,17.20
2022-10-19T04:46:31.175Z,17.80
2022-10-19T04:47:26.566Z,17.80
2022-10-19T04:48:21.774Z,17.80
2022-10-19T04:49:19.476Z,17.40
2022-10-19T04:50:12.308Z,17.50
2022-10-19T04:51:07.688Z,16.30
2022-10-19T04:52:02.771Z,18.60
2022-10-19T04:52:58.002Z,16.20
2022-10-19T04:53:54.485Z,16.30
2022-10-19T04:54:48.519Z,17.20
2022-10-19T04:55:43.858Z,17.10
2022-10-19T04:56:39.094Z,17.10
2022-10-19T04:57:34.621Z,15.50
2022-10-19T04:58:29.486Z,17.30
2022-10-19T04:59:24.436Z,15.90
2022-10-19T05:00:19.584Z,17.70
2022-10-19T05:01:14.593Z,15.90
2022-10-19T05:02:09.536Z,15.90
2022-10-19T05:03:04.644Z,16.70
2022-10-19T05:03:59.766Z,17.40
2022-10-19T05:04:55.106Z,16.60
2022-10-19T05:05:50.232Z,16.90
2022-10-19T05:06:45.242Z,17.50
2022-10-19T05:07:40.369Z,17.20
2022-10-19T05:08:35.443Z,16.60
2022-10-19T05:09:30.606Z,17.00
2022-10-19T05:10:25.603Z,17.00
2022-10-19T05:11:20.684Z,17.60
2022-10-19T05:12:15.762Z,16.80
2022-10-19T05:13:10.883Z,17.40
2022-10-19T05:14:05.950Z,16.60
2022-10-19T05:15:00.936Z,16.20
2022-10-19T05:15:56.035Z,16.30
2022-10-19T05:16:51.252Z,17.40
2022-10-19T05:17:46.504Z,19.20
2022-10-19T05:18:41.730Z,17.20
2022-10-19T05:19:37.283Z,18.50
2022-10-19T05:20:32.393Z,19.20
2022-10-19T05:21:27.613Z,17.50
2022-10-19T05:22:22.908Z,18.70
2022-10-19T05:23:18.171Z,19.70
2022-10-19T05:24:13.391Z,18.60
2022-10-19T05:25:08.634Z,17.80
2022-10-19T05:26:03.857Z,17.50
2022-10-19T05:26:59.133Z,17.70
2022-10-19T05:27:54.434Z,18.30
2022-10-19T05:28:49.702Z,17.40
2022-10-19T05:29:45.169Z,18.40
2022-10-19T05:30:40.335Z,17.60
2022-10-19T05:31:37.009Z,17.90
2022-10-19T05:32:32.419Z,17.70
2022-10-19T05:33:27.654Z,17.40
2022-10-19T05:34:22.944Z,18.30
2022-10-19T05:35:21.545Z,17.40
2022-10-19T05:36:13.352Z,19.10
2022-10-19T05:37:08.403Z,16.70
2022-10-19T05:38:03.450Z,16.40
2022-10-19T05:38:58.472Z,17.70
2022-10-19T05:39:53.532Z,16.40
2022-10-19T05:40:52.881Z,15.80
2022-10-19T05:41:44.711Z,16.80
2022-10-19T05:42:38.779Z,16.20
2022-10-19T05:43:33.784Z,16.70
2022-10-19T05:44:28.940Z,15.80
2022-10-19T05:45:26.174Z,14.90
2022-10-19T05:46:21.171Z,16.90
2022-10-19T05:47:16.253Z,15.80
2022-10-19T05:48:11.291Z,16.30
2022-10-19T05:49:06.407Z,16.10
2022-10-19T05:50:01.384Z,16.30
2022-10-19T05:50:56.466Z,16.70
2022-10-19T05:51:51.907Z,16.90
2022-10-19T05:52:54.253Z,16.10
2022-10-19T05:53:42.726Z,16.70
2022-10-19T05:54:38.126Z,16.80
2022-10-19T05:55:33.500Z,16.50
2022-10-19T05:56:28.987Z,15.90
2022-10-19T05:57:24.246Z,15.60
2022-10-19T05:58:20.966Z,16.40
2022-10-19T05:59:16.384Z,16.10
2022-10-19T06:00:11.785Z,16.30
2022-10-19T06:01:07.054Z,16.20
2022-10-19T06:02:02.685Z,16.00
2022-10-19T06:02:59.208Z,16.80
2022-10-19T06:03:53.107Z,16.50
2022-10-19T06:04:48.155Z,17.50
2022-10-19T06:05:43.279Z,16.50
2022-10-19T06:06:38.333Z,16.00
2022-10-19T06:07:33.720Z,16.20
2022-10-19T06:08:28.366Z,17.30
2022-10-19T06:09:23.342Z,16.90
2022-10-19T06:10:18.476Z,16.00
2022-10-19T06:12:40.343Z,17.10
2022-10-19T06:13:35.593Z,17.00
2022-10-19T06:14:30.960Z,16.70
2022-10-19T06:15:26.363Z,16.20
2022-10-19T06:16:21.793Z,16.30
2022-10-19T06:17:17.187Z,16.80
2022-10-19T06:18:12.595Z,16.60
2022-10-19T06:19:07.987Z,16.00
2022-10-19T06:20:03.411Z,15.90
2022-10-19T06:20:58.980Z,16.60
2022-10-19T06:21:54.393Z,16.20
2022-10-19T06:22:49.807Z,17.00
2022-10-19T06:23:45.199Z,16.20
2022-10-19T06:24:40.559Z,17.00
2022-10-19T06:25:36.121Z,16.40
2022-10-19T06:26:31.383Z,15.00
2022-10-19T06:27:26.841Z,15.70
2022-10-19T06:28:22.274Z,15.60
2022-10-19T06:29:17.687Z,15.60
2022-10-19T06:30:13.172Z,15.10
2022-10-19T06:31:09.312Z,15.50
2022-10-19T06:32:03.863Z,16.20
2022-10-19T06:32:59.363Z,15.50
2022-10-19T06:33:55.668Z,16.50
2022-10-19T06:34:53.046Z,16.60
2022-10-19T06:35:46.674Z,17.40
2022-10-19T06:36:41.003Z,17.20
2022-10-19T06:37:36.475Z,16.00
2022-10-19T06:38:31.786Z,16.40
2022-10-19T06:39:27.199Z,16.00
2022-10-19T06:40:22.666Z,17.90
2022-10-19T06:41:18.019Z,17.30
2022-10-19T06:42:13.630Z,17.20
2022-10-19T06:43:09.052Z,16.50
2022-10-19T06:44:04.545Z,16.60
2022-10-19T06:45:00.006Z,19.90
2022-10-19T06:45:55.450Z,18.30
2022-10-19T06:46:50.930Z,18.30
2022-10-19T06:48:42.100Z,18.60
2022-10-19T06:49:37.418Z,19.10
2022-10-19T06:50:32.841Z,19.20
2022-10-19T06:51:28.291Z,18.90
2022-10-19T06:52:23.760Z,16.50
2022-10-19T06:53:19.200Z,18.40
2022-10-19T06:54:14.769Z,18.30
2022-10-19T06:55:10.114Z,17.50
2022-10-19T06:56:05.578Z,16.80
2022-10-19T06:57:01.270Z,17.10
2022-10-19T06:57:56.585Z,15.60
2022-10-19T06:58:52.014Z,16.00
2022-10-19T06:59:50.165Z,16.30
2022-10-19T07:00:43.999Z,15.50
2022-10-19T07:01:38.484Z,16.80
2022-10-19T07:02:33.786Z,15.50
2022-10-19T07:03:29.315Z,15.10
2022-10-19T07:04:24.662Z,14.30
2022-10-19T07:05:20.194Z,15.20
2022-10-19T07:06:15.754Z,14.30
2022-10-19T07:07:11.282Z,14.00
2022-10-19T07:08:06.705Z,14.10
2022-10-19T07:09:02.177Z,14.60
2022-10-19T07:09:57.499Z,14.70
2022-10-19T07:10:52.962Z,15.10
2022-10-19T07:11:48.385Z,14.90
2022-10-19T07:12:43.880Z,15.50
2022-10-19T07:13:39.372Z,15.00
2022-10-19T07:14:34.842Z,14.20
2022-10-19T07:15:30.466Z,14.10
2022-10-19T07:16:25.808Z,14.80
2022-10-19T07:17:21.301Z,15.00
2022-10-19T07:18:16.785Z,13.60
2022-10-19T07:19:12.246Z,13.50
2022-10-19T07:20:07.703Z,15.30
2022-10-19T07:21:03.410Z,13.10
2022-10-19T07:21:58.880Z,12.50
2022-10-19T07:22:54.369Z,14.70
2022-10-19T07:23:49.949Z,13.40
2022-10-19T07:24:45.290Z,13.80
2022-10-19T07:25:40.822Z,12.60
2022-10-19T07:26:36.421Z,13.60
2022-10-19T07:27:35.384Z,13.10
2022-10-19T07:28:28.401Z,13.80
2022-10-19T07:29:22.980Z,12.90
2022-10-19T07:30:18.499Z,11.70
2022-10-19T07:31:14.126Z,12.00
2022-10-19T07:32:09.609Z,12.40
2022-10-19T07:33:05.099Z,12.20
2022-10-19T07:34:00.734Z,13.30
2022-10-19T07:34:56.275Z,12.40
2022-10-19T07:35:51.763Z,13.30
2022-10-19T07:36:47.291Z,12.80
2022-10-19T07:37:42.792Z,13.10
2022-10-19T07:38:38.273Z,12.50
2022-10-19T07:39:33.688Z,12.10
2022-10-19T07:40:29.328Z,13.30
2022-10-19T07:41:24.845Z,13.50
2022-10-19T07:43:15.945Z,12.10
2022-10-19T07:44:14.816Z,12.40
2022-10-19T07:45:06.875Z,12.40
2022-10-19T07:46:02.273Z,12.30
2022-10-19T07:46:57.790Z,11.30
2022-10-19T07:47:53.203Z,12.20
2022-10-19T07:48:48.680Z,11.40
2022-10-19T07:49:44.110Z,11.90
2022-10-19T07:50:39.486Z,11.60
2022-10-19T07:51:34.972Z,13.20
2022-10-19T07:52:33.024Z,12.50
2022-10-19T07:53:26.895Z,12.20
2022-10-19T07:54:21.225Z,12.50
2022-10-19T07:55:16.607Z,12.70
2022-10-19T07:56:12.101Z,12.00
2022-10-19T07:57:07.636Z,12.40
2022-10-19T07:58:03.128Z,12.90
2022-10-19T07:58:58.615Z,12.40
2022-10-19T07:59:54.245Z,11.80
2022-10-19T08:00:49.773Z,12.40
2022-10-19T08:01:45.330Z,12.20
2022-10-19T08:02:59.910Z,12.30
2022-10-19T08:05:28.393Z,10.30
2022-10-19T08:06:22.834Z,10.70
2022-10-19T08:07:18.303Z,10.50
2022-10-19T08:08:13.784Z,10.80
2022-10-19T08:09:09.364Z,11.60
2022-10-19T08:10:04.971Z,10.80
2022-10-19T08:11:00.327Z,11.60
2022-10-19T08:11:55.821Z,10.30
2022-10-19T08:12:51.316Z,10.50
2022-10-19T08:13:46.826Z,11.20
2022-10-19T08:14:42.515Z,11.30
2022-10-19T08:15:37.996Z,10.30
2022-10-19T08:16:33.511Z,14.10
2022-10-19T08:17:29.360Z,11.50
2022-10-19T08:18:24.772Z,13.10
2022-10-19T08:19:20.268Z,12.20
2022-10-19T08:20:15.976Z,12.30
2022-10-19T08:21:11.333Z,13.00
2022-10-19T08:22:06.791Z,12.00
2022-10-19T08:23:02.459Z,12.50
2022-10-19T08:23:57.932Z,13.30
2022-10-19T08:24:53.458Z,11.70
2022-10-19T08:25:48.899Z,12.80
2022-10-19T08:26:44.375Z,15.40
2022-10-19T08:27:39.867Z,14.90
2022-10-19T08:28:35.380Z,15.00
2022-10-19T08:29:31.699Z,14.20
2022-10-19T08:30:26.488Z,12.50
2022-10-19T08:31:21.999Z,10.50
2022-10-19T08:32:17.532Z,10.60
2022-10-19T08:33:13.193Z,10.90
2022-10-19T08:34:08.704Z,11.30
2022-10-19T08:36:29.864Z,9.90
2022-10-19T08:37:40.165Z,9.90
2022-10-19T08:38:20.919Z,10.50
2022-10-19T08:39:15.237Z,10.20
2022-10-19T08:40:10.709Z,11.10
2022-10-19T08:41:06.198Z,9.20
2022-10-19T08:42:01.866Z,10.20
2022-10-19T08:42:57.332Z,8.40
2022-10-19T08:43:52.816Z,9.40
2022-10-19T08:44:48.253Z,10.60
2022-10-19T08:45:43.653Z,10.60
2022-10-19T08:46:39.131Z,10.40
2022-10-19T08:47:34.687Z,8.90
2022-10-19T08:48:30.054Z,9.10
2022-10-19T08:49:25.562Z,8.80
2022-10-19T08:50:21.077Z,8.40
2022-10-19T08:51:16.614Z,7.60
2022-10-19T08:52:12.035Z,8.30
2022-10-19T08:53:07.424Z,7.80
2022-10-19T08:54:02.934Z,7.20
2022-10-19T08:54:58.357Z,7.70
2022-10-19T08:55:53.779Z,7.70
2022-10-19T08:56:51.691Z,7.00
2022-10-19T08:57:44.568Z,7.90
2022-10-19T08:58:39.975Z,8.60
2022-10-19T08:59:35.484Z,6.90
2022-10-19T09:00:30.780Z,8.50
2022-10-19T09:01:26.193Z,7.40
2022-10-19T09:02:21.627Z,7.40
2022-10-19T09:03:23.057Z,8.40
2022-10-19T09:04:13.413Z,8.40
2022-10-19T09:05:07.982Z,8.70
2022-10-19T09:06:03.460Z,8.20
2022-10-19T09:06:58.971Z,7.80
2022-10-19T09:07:54.349Z,8.10
2022-10-19T09:08:50.067Z,8.60
2022-10-19T09:10:41.033Z,9.10
2022-10-19T09:11:36.542Z,9.80
2022-10-19T09:12:32.201Z,8.90
2022-10-19T09:13:36.459Z,8.70
2022-10-19T09:14:23.961Z,10.40
2022-10-19T09:15:18.264Z,8.80
2022-10-19T09:16:13.767Z,8.80
2022-10-19T09:17:09.317Z,8.60
2022-10-19T09:18:04.979Z,8.10
2022-10-19T09:19:00.485Z,9.10
2022-10-19T09:19:56.136Z,8.60
2022-10-19T09:20:51.641Z,9.10
2022-10-19T09:21:47.826Z,8.30
2022-10-19T09:22:42.649Z,8.90
2022-10-19T09:23:38.137Z,8.90
2022-10-19T09:24:33.655Z,8.90
2022-10-19T09:25:29.336Z,8.70
2022-10-19T09:26:24.604Z,8.00
2022-10-19T09:27:20.012Z,8.20
2022-10-19T09:28:15.504Z,8.50
2022-10-19T09:29:11.045Z,8.40
2022-10-19T09:30:06.525Z,7.60
2022-10-19T09:31:02.002Z,7.80
2022-10-19T09:32:52.872Z,8.50
2022-10-19T09:33:48.366Z,8.00
2022-10-19T09:34:43.851Z,8.50
2022-10-19T09:35:39.354Z,9.20
2022-10-19T09:36:50.077Z,8.50
2022-10-19T09:37:31.362Z,8.40
2022-10-19T09:38:25.676Z,8.00
2022-10-19T09:39:22.614Z,10.60
2022-10-19T09:40:16.615Z,8.50
2022-10-19T09:41:11.892Z,8.30
2022-10-19T09:42:07.376Z,8.30
2022-10-19T09:43:02.877Z,7.70
2022-10-19T09:43:58.276Z,8.00
2022-10-19T09:44:53.864Z,8.60
2022-10-19T09:45:49.226Z,8.00
2022-10-19T09:47:40.027Z,8.70
2022-10-19T09:48:35.560Z,8.50
2022-10-19T09:49:31.077Z,8.50
2022-10-19T09:50:26.626Z,8.50
2022-10-19T09:51:22.015Z,8.50
2022-10-19T09:52:17.513Z,8.20
2022-10-19T09:53:12.997Z,8.90
2022-10-19T09:54:08.649Z,9.20
2022-10-19T09:55:04.244Z,9.00
2022-10-19T09:55:59.497Z,9.00
2022-10-19T09:56:54.933Z,8.40
2022-10-19T09:57:50.428Z,9.50
2022-10-19T09:58:46.036Z,8.80
2022-10-19T09:59:41.528Z,9.00
2022-10-19T10:00:37.201Z,9.10
2022-10-19T10:01:41.758Z,8.70
2022-10-19T10:02:29.464Z,8.60
2022-10-19T10:03:23.715Z,8.30
2022-10-19T10:04:19.299Z,8.10
2022-10-19T10:05:14.802Z,8.40
2022-10-19T10:06:10.199Z,8.30
2022-10-19T10:07:05.737Z,8.60
2022-10-19T10:08:01.237Z,9.00
2022-10-19T10:08:56.642Z,12.80
2022-10-19T10:09:52.181Z,9.50
2022-10-19T10:10:47.680Z,9.70
2022-10-19T10:11:43.258Z,8.50
2022-10-19T10:12:38.765Z,8.00
2022-10-19T10:13:34.262Z,8.30
2022-10-19T10:14:29.758Z,8.10
2022-10-19T10:15:25.298Z,8.80
2022-10-19T10:16:20.842Z,8.00
2022-10-19T10:17:16.333Z,8.10
2022-10-19T10:18:11.822Z,8.60
2022-10-19T10:19:07.306Z,9.10
2022-10-19T10:20:02.849Z,9.20
2022-10-19T10:20:58.504Z,8.00
2022-10-19T10:21:53.996Z,8.50
2022-10-19T10:22:49.479Z,8.90
2022-10-19T10:23:45.031Z,8.00
2022-10-19T10:24:40.505Z,8.60
2022-10-19T10:25:36.010Z,8.60
2022-10-19T10:26:31.746Z,8.20
2022-10-19T10:27:27.411Z,8.60
2022-10-19T10:28:22.757Z,8.20
2022-10-19T10:29:18.299Z,8.30
2022-10-19T10:30:13.807Z,8.20
2022-10-19T10:31:09.285Z,8.40
2022-10-19T10:32:04.924Z,7.40
2022-10-19T10:33:08.206Z,8.20
2022-10-19T10:33:56.922Z,8.10
2022-10-19T10:34:54.901Z,8.30
2022-10-19T10:35:47.706Z,8.40
2022-10-19T10:36:42.279Z,8.40
2022-10-19T10:37:37.774Z,8.30
2022-10-19T10:38:33.257Z,7.80
2022-10-19T10:39:28.796Z,7.50
2022-10-19T10:40:24.249Z,8.10
2022-10-19T10:41:19.640Z,7.30
2022-10-19T10:42:15.290Z,8.30
2022-10-19T10:43:10.944Z,7.70
2022-10-19T10:44:06.303Z,7.90
2022-10-19T10:45:01.824Z,8.10
2022-10-19T10:45:57.317Z,7.80
2022-10-19T10:46:52.659Z,8.00
2022-10-19T10:47:48.186Z,7.50
2022-10-19T10:48:43.808Z,7.10
2022-10-19T10:49:39.303Z,7.30
2022-10-19T10:50:34.742Z,8.20
2022-10-19T10:51:30.216Z,7.70
2022-10-19T10:52:25.732Z,7.30
2022-10-19T10:53:21.387Z,7.40
2022-10-19T10:54:16.894Z,7.90
2022-10-19T10:55:12.344Z,7.50
2022-10-19T10:56:07.823Z,7.90
2022-10-19T10:57:06.326Z,8.40
2022-10-19T10:57:58.867Z,7.20
2022-10-19T10:58:54.255Z,7.30
2022-10-19T10:59:49.684Z,7.40
2022-10-19T11:00:45.144Z,7.30
2022-10-19T11:01:40.636Z,7.10
2022-10-19T11:02:36.265Z,6.80
2022-10-19T11:03:31.692Z,7.10
2022-10-19T11:04:27.104Z,6.50
2022-10-19T11:05:22.581Z,7.20
2022-10-19T11:06:17.951Z,7.20
2022-10-19T11:07:13.488Z,6.30
2022-10-19T11:08:08.798Z,6.70
2022-10-19T11:09:04.517Z,6.50
2022-10-19T11:09:59.968Z,7.00
2022-10-19T11:10:55.353Z,6.70
2022-10-19T11:11:50.790Z,6.60
2022-10-19T11:12:46.274Z,7.40
2022-10-19T11:13:41.712Z,7.10
2022-10-19T11:14:37.022Z,6.90
2022-10-19T11:15:32.503Z,7.00
2022-10-19T11:16:27.895Z,6.40
2022-10-19T11:17:23.378Z,7.40
2022-10-19T11:18:18.938Z,6.80
2022-10-19T11:20:09.928Z,7.10
2022-10-19T11:21:05.419Z,7.40
2022-10-19T11:22:00.868Z,7.10
2022-10-19T11:22:56.348Z,7.40
2022-10-19T11:23:51.976Z,6.60
2022-10-19T11:24:48.724Z,7.00
2022-10-19T11:25:42.805Z,7.10
2022-10-19T11:26:38.424Z,6.90
2022-10-19T11:27:34.254Z,7.50
2022-10-19T11:28:29.385Z,7.20
2022-10-19T11:29:25.032Z,7.30
2022-10-19T11:30:20.560Z,7.70
2022-10-19T11:31:15.997Z,7.50
2022-10-19T11:32:11.590Z,7.00
2022-10-19T11:33:07.078Z,7.10
2022-10-19T11:34:02.693Z,7.30
2022-10-19T11:34:58.075Z,7.40
2022-10-19T11:35:53.423Z,7.10
2022-10-19T11:36:48.883Z,7.90
2022-10-19T11:37:49.872Z,7.70
2022-10-19T11:38:40.786Z,7.00
2022-10-19T11:39:35.208Z,7.80
2022-10-19T11:40:30.816Z,9.50
2022-10-19T11:41:26.281Z,7.20
2022-10-19T11:42:21.779Z,7.70
2022-10-19T11:43:17.280Z,6.80
2022-10-19T11:44:12.751Z,7.10
2022-10-19T11:45:08.266Z,6.80
2022-10-19T11:46:03.843Z,6.80
2022-10-19T11:46:59.338Z,6.70
2022-10-19T11:47:54.768Z,6.40
2022-10-19T11:48:54.160Z,6.50
2022-10-19T11:49:45.702Z,6.40
2022-10-19T11:50:44.130Z,6.40
2022-10-19T11:51:37.765Z,6.40
2022-10-19T11:52:32.494Z,6.40
2022-10-19T11:53:27.811Z,6.40
2022-10-19T11:54:23.275Z,6.80
2022-10-19T11:55:18.805Z,6.70
2022-10-19T11:56:14.133Z,6.10
2022-10-19T11:57:11.704Z,6.40
2022-10-19T11:58:05.192Z,6.50
2022-10-19T11:59:00.649Z,7.00
2022-10-19T12:00:03.566Z,6.00
2022-10-19T12:00:52.795Z,6.70
2022-10-19T12:01:47.175Z,6.60
2022-10-19T12:02:42.655Z,6.40
2022-10-19T12:03:38.173Z,5.90
2022-10-19T12:04:33.587Z,6.20
2022-10-19T12:05:29.058Z,6.70
2022-10-19T12:06:24.646Z,6.30
2022-10-19T12:07:20.192Z,6.40
2022-10-19T12:08:15.562Z,6.00
2022-10-19T12:09:10.895Z,6.20
2022-10-19T12:10:06.305Z,6.40
2022-10-19T12:11:01.913Z,6.30
2022-10-19T12:11:57.260Z,6.50
2022-10-19T12:12:52.769Z,6.30
2022-10-19T12:13:48.146Z,6.60
2022-10-19T12:14:43.576Z,6.60
2022-10-19T12:15:39.049Z,5.80
2022-10-19T12:16:34.488Z,5.90